createdAt,value
2022-09-11T00:00:18.355Z,14.73
2022-09-11T00:01:18.666Z,14.72
2022-09-11T00:02:18.343Z,14.70
2022-09-11T00:03:18.314Z,14.72
2022-09-11T00:04:18.293Z,14.72
2022-09-11T00:05:18.713Z,14.75
2022-09-11T00:06:28.838Z,14.75
2022-09-11T00:07:19.253Z,14.73
2022-09-11T00:08:18.241Z,14.73
2022-09-11T00:09:18.245Z,14.72
2022-09-11T00:10:18.212Z,14.73
2022-09-11T00:11:18.620Z,14.72
2022-09-11T00:12:18.192Z,14.72
2022-09-11T00:13:18.176Z,14.72
2022-09-11T00:14:18.161Z,14.73
2022-09-11T00:15:18.632Z,14.72
2022-09-11T00:16:18.186Z,14.73
2022-09-11T00:17:18.117Z,14.73
2022-09-11T00:18:18.105Z,14.72
2022-09-11T00:19:18.098Z,14.75
2022-09-11T00:20:18.078Z,14.73
2022-09-11T00:21:18.424Z,14.70
2022-09-11T00:22:18.060Z,14.73
2022-09-11T00:23:18.031Z,14.72
2022-09-11T00:24:18.032Z,14.72
2022-09-11T00:25:18.340Z,14.73
2022-09-11T00:26:18.008Z,14.75
2022-09-11T00:27:17.994Z,14.73
2022-09-11T00:28:17.983Z,14.75
2022-09-11T00:29:17.960Z,14.77
2022-09-11T00:30:17.940Z,14.77
2022-09-11T00:31:18.309Z,14.77
2022-09-11T00:32:17.928Z,14.78
2022-09-11T00:33:17.897Z,14.77
2022-09-11T00:34:17.892Z,14.80
2022-09-11T00:35:18.291Z,14.80
2022-09-11T00:36:17.865Z,14.81
2022-09-11T00:37:17.856Z,14.80
2022-09-11T00:38:17.840Z,14.81
2022-09-11T00:39:17.829Z,14.81
2022-09-11T00:40:17.809Z,14.80
2022-09-11T00:41:18.219Z,14.83
2022-09-11T00:42:17.799Z,14.83
2022-09-11T00:43:17.777Z,14.83
2022-09-11T00:44:17.766Z,14.83
2022-09-11T00:45:18.177Z,14.83
2022-09-11T00:46:17.728Z,14.83
2022-09-11T00:47:17.730Z,14.83
2022-09-11T00:48:17.706Z,14.84
2022-09-11T00:49:17.692Z,14.84
2022-09-11T00:50:19.419Z,14.86
2022-09-11T00:51:18.086Z,14.84
2022-09-11T00:52:17.665Z,14.86
2022-09-11T00:53:17.625Z,14.86
2022-09-11T00:54:17.625Z,14.88
2022-09-11T00:55:17.975Z,14.86
2022-09-11T00:56:17.598Z,14.86
2022-09-11T00:57:17.586Z,14.86
2022-09-11T00:58:17.565Z,14.86
2022-09-11T00:59:17.565Z,14.86
2022-09-11T01:00:17.546Z,14.84
2022-09-11T01:01:17.863Z,14.86
2022-09-11T01:02:17.532Z,14.84
2022-09-11T01:03:17.513Z,14.83
2022-09-11T01:04:17.493Z,14.84
2022-09-11T01:05:17.904Z,14.83
2022-09-11T01:06:17.462Z,14.84
2022-09-11T01:07:17.455Z,14.86
2022-09-11T01:08:17.442Z,14.84
2022-09-11T01:09:17.424Z,14.86
2022-09-11T01:10:17.415Z,14.86
2022-09-11T01:11:17.710Z,14.86
2022-09-11T01:12:17.383Z,14.86
2022-09-11T01:13:17.368Z,14.86
2022-09-11T01:14:17.360Z,14.89
2022-09-11T01:15:17.661Z,14.89
2022-09-11T01:16:17.388Z,14.88
2022-09-11T01:17:17.311Z,14.89
2022-09-11T01:18:17.303Z,14.91
2022-09-11T01:19:17.291Z,14.91
2022-09-11T01:20:17.280Z,14.91
2022-09-11T01:21:17.581Z,14.92
2022-09-11T01:22:17.260Z,14.91
2022-09-11T01:23:17.232Z,14.92
2022-09-11T01:24:17.219Z,14.92
2022-09-11T01:25:17.632Z,14.92
2022-09-11T01:26:17.199Z,14.92
2022-09-11T01:27:17.179Z,14.94
2022-09-11T01:28:17.166Z,14.92
2022-09-11T01:29:17.167Z,14.95
2022-09-11T01:30:17.147Z,14.95
2022-09-11T01:31:17.499Z,14.96
2022-09-11T01:32:17.117Z,14.92
2022-09-11T01:33:17.105Z,14.89
2022-09-11T01:34:17.090Z,14.88
2022-09-11T01:35:17.488Z,14.83
2022-09-11T01:36:17.060Z,14.83
2022-09-11T01:37:17.038Z,14.78
2022-09-11T01:38:17.038Z,14.77
2022-09-11T01:39:17.017Z,14.73
2022-09-11T01:40:17.004Z,14.75
2022-09-11T01:41:17.427Z,14.73
2022-09-11T01:42:16.984Z,14.72
2022-09-11T01:43:16.967Z,14.72
2022-09-11T01:44:16.956Z,14.72
2022-09-11T01:45:17.287Z,14.73
2022-09-11T01:46:16.952Z,14.72
2022-09-11T01:47:16.918Z,14.72
2022-09-11T01:48:16.907Z,14.70
2022-09-11T01:49:16.885Z,14.73
2022-09-11T01:50:16.875Z,14.73
2022-09-11T01:51:17.293Z,14.75
2022-09-11T01:52:16.845Z,14.73
2022-09-11T01:53:16.833Z,14.73
2022-09-11T01:54:16.824Z,14.73
2022-09-11T01:55:17.231Z,14.73
2022-09-11T01:56:16.794Z,14.75
2022-09-11T01:57:16.782Z,14.73
2022-09-11T01:58:16.764Z,14.75
2022-09-11T01:59:16.757Z,14.75
2022-09-11T02:00:17.104Z,14.77
2022-09-11T02:01:16.742Z,14.75
2022-09-11T02:02:16.782Z,14.77
2022-09-11T02:03:16.715Z,14.75
2022-09-11T02:04:16.683Z,14.73
2022-09-11T02:05:17.011Z,14.73
2022-09-11T02:06:16.662Z,14.70
2022-09-11T02:07:16.652Z,14.65
2022-09-11T02:08:16.633Z,14.64
2022-09-11T02:09:16.621Z,14.61
2022-09-11T02:10:16.610Z,14.58
2022-09-11T02:11:17.031Z,14.55
2022-09-11T02:12:16.600Z,14.50
2022-09-11T02:13:16.575Z,14.47
2022-09-11T02:14:16.560Z,14.47
2022-09-11T02:15:16.932Z,14.46
2022-09-11T02:16:16.593Z,14.46
2022-09-11T02:17:16.520Z,14.47
2022-09-11T02:18:16.500Z,14.50
2022-09-11T02:19:16.491Z,14.50
2022-09-11T02:20:16.485Z,14.52
2022-09-11T02:21:16.821Z,14.52
2022-09-11T02:22:16.450Z,14.51
2022-09-11T02:23:16.439Z,14.52
2022-09-11T02:24:16.430Z,14.52
2022-09-11T02:25:16.838Z,14.52
2022-09-11T02:26:16.392Z,14.51
2022-09-11T02:27:16.387Z,14.51
2022-09-11T02:28:16.368Z,14.51
2022-09-11T02:29:16.363Z,14.50
2022-09-11T02:30:16.361Z,14.47
2022-09-11T02:31:16.757Z,14.46
2022-09-11T02:32:16.317Z,14.45
2022-09-11T02:33:16.308Z,14.45
2022-09-11T02:34:16.288Z,14.45
2022-09-11T02:35:16.708Z,14.43
2022-09-11T02:36:16.257Z,14.43
2022-09-11T02:37:16.252Z,14.45
2022-09-11T02:38:16.245Z,14.45
2022-09-11T02:39:16.218Z,14.46
2022-09-11T02:40:16.251Z,14.47
2022-09-11T02:41:16.627Z,14.50
2022-09-11T02:42:16.176Z,14.51
2022-09-11T02:43:16.186Z,14.51
2022-09-11T02:44:16.156Z,14.51
2022-09-11T02:45:16.483Z,14.52
2022-09-11T02:46:16.127Z,14.55
2022-09-11T02:47:16.127Z,14.57
2022-09-11T02:48:16.105Z,14.58
2022-09-11T02:49:16.095Z,14.58
2022-09-11T02:50:16.507Z,14.61
2022-09-11T02:51:16.066Z,14.61
2022-09-11T02:52:16.045Z,14.64
2022-09-11T02:53:16.041Z,14.64
2022-09-11T02:54:16.025Z,14.68
2022-09-11T02:55:16.383Z,14.68
2022-09-11T02:56:15.988Z,14.68
2022-09-11T02:57:15.976Z,14.68
2022-09-11T02:58:15.964Z,14.68
2022-09-11T02:59:15.953Z,14.69
2022-09-11T03:00:15.968Z,14.69
2022-09-11T03:01:16.311Z,14.70
2022-09-11T03:02:15.957Z,14.70
2022-09-11T03:03:15.896Z,14.69
2022-09-11T03:04:15.878Z,14.70
2022-09-11T03:05:16.283Z,14.70
2022-09-11T03:06:15.849Z,14.72
2022-09-11T03:07:15.832Z,14.72
2022-09-11T03:08:15.830Z,14.72
2022-09-11T03:09:15.824Z,14.72
2022-09-11T03:10:15.799Z,14.72
2022-09-11T03:11:16.160Z,14.73
2022-09-11T03:12:15.781Z,14.75
2022-09-11T03:13:15.760Z,14.77
2022-09-11T03:14:15.742Z,14.75
2022-09-11T03:15:16.171Z,14.75
2022-09-11T03:16:15.758Z,14.77
2022-09-11T03:17:15.725Z,14.77
2022-09-11T03:18:15.697Z,14.78
2022-09-11T03:19:15.686Z,14.77
2022-09-11T03:20:16.042Z,14.80
2022-09-11T03:21:15.647Z,14.80
2022-09-11T03:22:15.658Z,14.78
2022-09-11T03:23:15.628Z,14.80
2022-09-11T03:24:15.600Z,14.80
2022-09-11T03:25:16.028Z,14.80
2022-09-11T03:26:15.582Z,14.78
2022-09-11T03:27:15.559Z,14.80
2022-09-11T03:28:15.556Z,14.80
2022-09-11T03:29:15.537Z,14.80
2022-09-11T03:30:15.520Z,14.80
2022-09-11T03:31:15.981Z,14.80
2022-09-11T03:32:15.505Z,14.81
2022-09-11T03:33:15.478Z,14.80
2022-09-11T03:34:15.470Z,14.80
2022-09-11T03:35:15.817Z,14.80
2022-09-11T03:36:15.438Z,14.78
2022-09-11T03:37:15.427Z,14.80
2022-09-11T03:38:15.416Z,14.81
2022-09-11T03:39:15.404Z,14.80
2022-09-11T03:40:15.434Z,14.80
2022-09-11T03:41:15.823Z,14.80
2022-09-11T03:42:15.360Z,14.80
2022-09-11T03:43:15.355Z,14.80
2022-09-11T03:44:15.325Z,14.78
2022-09-11T03:45:15.722Z,14.80
2022-09-11T03:46:15.312Z,14.78
2022-09-11T03:47:15.300Z,14.80
2022-09-11T03:48:15.282Z,14.78
2022-09-11T03:49:15.264Z,14.78
2022-09-11T03:50:15.259Z,14.77
2022-09-11T03:51:15.667Z,14.77
2022-09-11T03:52:15.325Z,14.75
2022-09-11T03:53:15.213Z,14.75
2022-09-11T03:54:15.200Z,14.73
2022-09-11T03:55:15.601Z,14.75
2022-09-11T03:56:15.193Z,14.77
2022-09-11T03:57:15.160Z,14.75
2022-09-11T03:58:15.149Z,14.75
2022-09-11T03:59:15.133Z,14.75
2022-09-11T04:00:15.260Z,14.73
2022-09-11T04:01:15.571Z,14.75
2022-09-11T04:02:15.159Z,14.75
2022-09-11T04:03:15.082Z,14.75
2022-09-11T04:04:15.062Z,14.75
2022-09-11T04:05:15.431Z,14.73
2022-09-11T04:06:15.031Z,14.73
2022-09-11T04:07:15.028Z,14.73
2022-09-11T04:08:15.032Z,14.73
2022-09-11T04:09:14.993Z,14.70
2022-09-11T04:10:14.971Z,14.72
2022-09-11T04:11:15.492Z,14.72
2022-09-11T04:12:14.980Z,14.72
2022-09-11T04:13:14.930Z,14.73
2022-09-11T04:14:14.960Z,14.70
2022-09-11T04:15:15.233Z,14.72
2022-09-11T04:16:14.943Z,14.70
2022-09-11T04:17:14.889Z,14.70
2022-09-11T04:18:14.941Z,14.69
2022-09-11T04:19:14.849Z,14.69
2022-09-11T04:20:14.905Z,14.69
2022-09-11T04:21:15.401Z,14.68
2022-09-11T04:22:14.855Z,14.65
2022-09-11T04:23:14.798Z,14.65
2022-09-11T04:24:14.968Z,14.65
2022-09-11T04:25:15.219Z,14.64
2022-09-11T04:26:14.759Z,14.64
2022-09-11T04:27:14.747Z,14.65
2022-09-11T04:28:14.727Z,14.65
2022-09-11T04:29:14.718Z,14.64
2022-09-11T04:30:14.697Z,14.65
2022-09-11T04:31:15.098Z,14.65
2022-09-11T04:32:14.676Z,14.68
2022-09-11T04:33:14.666Z,14.68
2022-09-11T04:34:14.647Z,14.68
2022-09-11T04:35:15.077Z,14.64
2022-09-11T04:36:14.617Z,14.65
2022-09-11T04:37:14.606Z,14.64
2022-09-11T04:38:14.597Z,14.64
2022-09-11T04:39:14.576Z,14.64
2022-09-11T04:40:14.618Z,14.65
2022-09-11T04:41:14.883Z,14.64
2022-09-11T04:42:14.552Z,14.65
2022-09-11T04:43:14.536Z,14.68
2022-09-11T04:44:14.594Z,14.68
2022-09-11T04:45:15.024Z,14.70
2022-09-11T04:46:14.605Z,14.70
2022-09-11T04:47:14.569Z,14.70
2022-09-11T04:48:14.515Z,14.70
2022-09-11T04:49:14.484Z,14.72
2022-09-11T04:50:14.463Z,14.70
2022-09-11T04:51:14.414Z,14.72
2022-09-11T04:52:14.406Z,14.72
2022-09-11T04:53:14.413Z,14.73
2022-09-11T04:54:14.394Z,14.75
2022-09-11T04:55:14.733Z,14.77
2022-09-11T04:56:14.350Z,14.78
2022-09-11T04:57:14.340Z,14.77
2022-09-11T04:58:14.324Z,14.78
2022-09-11T04:59:14.315Z,14.78
2022-09-11T05:00:14.610Z,14.80
2022-09-11T05:01:14.308Z,14.81
2022-09-11T05:02:14.319Z,14.81
2022-09-11T05:03:14.253Z,14.81
2022-09-11T05:04:14.238Z,14.83
2022-09-11T05:05:14.588Z,14.83
2022-09-11T05:06:14.234Z,14.84
2022-09-11T05:07:14.200Z,14.88
2022-09-11T05:08:14.190Z,14.88
2022-09-11T05:09:14.171Z,14.88
2022-09-11T05:10:14.150Z,14.88
2022-09-11T05:11:14.588Z,14.89
2022-09-11T05:12:14.130Z,14.88
2022-09-11T05:13:14.134Z,14.89
2022-09-11T05:14:14.098Z,14.91
2022-09-11T05:15:14.511Z,14.89
2022-09-11T05:16:14.101Z,14.91
2022-09-11T05:17:14.059Z,14.91
2022-09-11T05:18:14.046Z,14.92
2022-09-11T05:19:14.040Z,14.92
2022-09-11T05:20:14.458Z,14.92
2022-09-11T05:21:14.000Z,14.92
2022-09-11T05:22:13.990Z,14.94
2022-09-11T05:23:13.975Z,14.95
2022-09-11T05:24:13.966Z,14.94
2022-09-11T05:25:14.375Z,14.96
2022-09-11T05:26:13.928Z,14.96
2022-09-11T05:27:13.917Z,14.96
2022-09-11T05:28:13.907Z,14.98
2022-09-11T05:29:13.898Z,14.98
2022-09-11T05:30:13.907Z,14.98
2022-09-11T05:31:13.907Z,14.99
2022-09-11T05:32:13.855Z,14.99
2022-09-11T05:33:13.906Z,15.01
2022-09-11T05:34:13.831Z,15.01
2022-09-11T05:35:14.275Z,15.03
2022-09-11T05:36:13.793Z,15.03
2022-09-11T05:37:13.782Z,15.02
2022-09-11T05:38:13.782Z,15.03
2022-09-11T05:39:13.766Z,15.03
2022-09-11T05:40:13.752Z,15.03
2022-09-11T05:41:13.756Z,15.03
2022-09-11T05:42:13.723Z,15.03
2022-09-11T05:43:14.662Z,15.03
2022-09-11T05:44:13.695Z,15.02
2022-09-11T05:45:15.030Z,15.06
2022-09-11T05:46:13.653Z,15.06
2022-09-11T05:47:13.645Z,15.06
2022-09-11T05:48:13.623Z,15.07
2022-09-11T05:49:13.621Z,15.09
2022-09-11T05:50:13.593Z,15.10
2022-09-11T05:51:13.822Z,15.09
2022-09-11T05:52:13.576Z,15.13
2022-09-11T05:53:13.567Z,15.14
2022-09-11T05:54:13.555Z,15.16
2022-09-11T05:55:13.586Z,15.19
2022-09-11T05:56:13.516Z,15.20
2022-09-11T05:57:13.513Z,15.20
2022-09-11T05:58:13.487Z,15.20
2022-09-11T05:59:13.481Z,15.25
2022-09-11T06:00:13.471Z,15.27
2022-09-11T06:01:13.571Z,15.28
2022-09-11T06:02:13.478Z,15.32
2022-09-11T06:03:15.440Z,15.34
2022-09-11T06:04:13.425Z,15.36
2022-09-11T06:05:13.820Z,15.39
2022-09-11T06:06:13.392Z,15.41
2022-09-11T06:07:13.382Z,15.44
2022-09-11T06:08:13.360Z,15.44
2022-09-11T06:09:13.350Z,15.46
2022-09-11T06:10:13.351Z,15.49
2022-09-11T06:11:13.584Z,15.47
2022-09-11T06:12:13.318Z,15.44
2022-09-11T06:13:13.299Z,15.44
2022-09-11T06:14:13.300Z,15.46
2022-09-11T06:15:36.379Z,15.47
2022-09-11T06:16:18.108Z,15.47
2022-09-11T06:17:13.248Z,15.50
2022-09-11T06:18:13.271Z,15.53
2022-09-11T06:19:13.218Z,15.56
2022-09-11T06:20:13.660Z,15.59
2022-09-11T06:21:13.236Z,15.62
2022-09-11T06:22:13.480Z,15.64
2022-09-11T06:23:13.205Z,15.67
2022-09-11T06:24:13.165Z,15.71
2022-09-11T06:25:13.522Z,15.74
2022-09-11T06:26:13.141Z,15.75
2022-09-11T06:27:13.138Z,15.76
2022-09-11T06:28:13.097Z,15.82
2022-09-11T06:29:13.153Z,15.84
2022-09-11T06:30:13.077Z,15.89
2022-09-11T06:31:13.631Z,15.92
2022-09-11T06:32:13.063Z,15.93
2022-09-11T06:33:13.109Z,15.92
2022-09-11T06:34:13.028Z,15.90
2022-09-11T06:35:13.376Z,15.90
2022-09-11T06:36:13.025Z,15.92
2022-09-11T06:37:12.983Z,15.93
2022-09-11T06:38:12.977Z,15.93
2022-09-11T06:39:12.970Z,15.92
2022-09-11T06:40:13.475Z,15.96
2022-09-11T06:41:12.937Z,16.00
2022-09-11T06:42:12.918Z,16.02
2022-09-11T06:43:12.996Z,16.01
2022-09-11T06:44:12.894Z,16.00
2022-09-11T06:45:12.887Z,16.00
2022-09-11T06:46:13.409Z,16.02
2022-09-11T06:47:12.853Z,16.07
2022-09-11T06:48:12.844Z,16.07
2022-09-11T06:49:12.816Z,16.05
2022-09-11T06:50:12.974Z,16.04
2022-09-11T06:51:13.352Z,16.02
2022-09-11T06:52:12.796Z,16.05
2022-09-11T06:53:12.783Z,16.09
2022-09-11T06:54:12.762Z,16.12
2022-09-11T06:55:12.773Z,16.12
2022-09-11T06:56:12.765Z,16.11
2022-09-11T06:57:12.763Z,16.09
2022-09-11T06:58:13.971Z,16.05
2022-09-11T06:59:12.852Z,16.07
2022-09-11T07:00:12.754Z,16.08
2022-09-11T07:01:12.956Z,16.11
2022-09-11T07:02:12.788Z,16.12
2022-09-11T07:03:12.698Z,16.15
2022-09-11T07:04:12.640Z,16.15
2022-09-11T07:05:12.611Z,16.14
2022-09-11T07:06:12.632Z,16.14
2022-09-11T07:07:12.679Z,16.21
2022-09-11T07:08:12.587Z,16.21
2022-09-11T07:09:12.870Z,16.25
2022-09-11T07:10:12.555Z,16.25
2022-09-11T07:11:12.530Z,16.31
2022-09-11T07:12:12.543Z,16.34
2022-09-11T07:13:12.504Z,16.41
2022-09-11T07:14:13.129Z,16.45
2022-09-11T07:15:12.890Z,16.49
2022-09-11T07:16:12.605Z,16.53
2022-09-11T07:17:12.504Z,16.56
2022-09-11T07:18:12.448Z,16.53
2022-09-11T07:19:12.430Z,16.53
2022-09-11T07:20:12.419Z,16.57
2022-09-11T07:21:13.457Z,16.61
2022-09-11T07:22:13.929Z,16.66
2022-09-11T07:23:12.890Z,16.67
2022-09-11T07:24:12.390Z,16.71
2022-09-11T07:25:12.718Z,16.75
2022-09-11T07:26:12.348Z,16.81
2022-09-11T07:27:12.321Z,16.85
2022-09-11T07:28:12.321Z,16.88
2022-09-11T07:29:12.452Z,17.00
2022-09-11T07:30:12.322Z,17.06
2022-09-11T07:31:13.811Z,17.15
2022-09-11T07:32:12.258Z,17.23
2022-09-11T07:33:12.256Z,17.30
2022-09-11T07:34:12.234Z,17.36
2022-09-11T07:35:12.315Z,17.49
2022-09-11T07:36:12.335Z,17.58
2022-09-11T07:37:12.589Z,17.64
2022-09-11T07:38:12.397Z,17.66
2022-09-11T07:39:12.190Z,17.66
2022-09-11T07:40:12.279Z,17.62
2022-09-11T07:41:12.149Z,17.49
2022-09-11T07:42:12.122Z,17.52
2022-09-11T07:43:12.477Z,17.41
2022-09-11T07:44:12.105Z,17.41
2022-09-11T07:45:12.087Z,17.41
2022-09-11T07:46:12.147Z,17.41
2022-09-11T07:47:12.046Z,17.44
2022-09-11T07:48:12.055Z,17.49
2022-09-11T07:49:12.347Z,17.52
2022-09-11T07:50:12.025Z,17.49
2022-09-11T07:51:12.006Z,17.49
2022-09-11T07:52:16.614Z,17.51
2022-09-11T07:53:11.986Z,17.51
2022-09-11T07:54:11.967Z,17.52
2022-09-11T07:55:12.374Z,17.52
2022-09-11T07:56:11.957Z,17.52
2022-09-11T07:57:11.915Z,17.58
2022-09-11T07:58:11.910Z,17.55
2022-09-11T07:59:11.897Z,17.49
2022-09-11T08:00:11.888Z,17.44
2022-09-11T08:01:12.218Z,17.41
2022-09-11T08:02:11.894Z,17.31
2022-09-11T08:03:11.846Z,17.19
2022-09-11T08:04:11.864Z,17.14
2022-09-11T08:05:12.336Z,17.14
2022-09-11T08:06:11.838Z,17.08
2022-09-11T08:07:12.215Z,17.12
2022-09-11T08:08:11.810Z,17.14
2022-09-11T08:09:11.769Z,17.14
2022-09-11T08:10:26.576Z,17.07
2022-09-11T08:11:12.745Z,17.06
2022-09-11T08:12:11.745Z,17.00
2022-09-11T08:13:12.144Z,17.00
2022-09-11T08:14:11.708Z,16.94
2022-09-11T08:15:11.684Z,16.91
2022-09-11T08:16:11.734Z,16.93
2022-09-11T08:17:11.666Z,16.94
2022-09-11T08:18:11.674Z,17.00
2022-09-11T08:19:12.063Z,17.04
2022-09-11T08:20:11.630Z,17.11
2022-09-11T08:21:13.099Z,17.16
2022-09-11T08:22:11.603Z,17.19
2022-09-11T08:23:11.585Z,17.25
2022-09-11T08:24:11.579Z,17.28
2022-09-11T08:25:11.983Z,17.30
2022-09-11T08:26:11.572Z,17.33
2022-09-11T08:27:11.530Z,17.43
2022-09-11T08:28:11.519Z,17.49
2022-09-11T08:29:11.503Z,17.62
2022-09-11T08:30:11.500Z,17.72
2022-09-11T08:31:11.946Z,17.78
2022-09-11T08:32:11.487Z,17.84
2022-09-11T08:33:11.453Z,17.90
2022-09-11T08:34:11.448Z,17.92
2022-09-11T08:35:11.422Z,17.92
2022-09-11T08:36:11.414Z,17.96
2022-09-11T08:37:11.857Z,17.84
2022-09-11T08:38:11.385Z,17.71
2022-09-11T08:39:11.373Z,17.58
2022-09-11T08:40:11.414Z,17.56
2022-09-11T08:41:11.344Z,17.55
2022-09-11T08:42:11.343Z,17.56
2022-09-11T08:43:11.733Z,17.63
2022-09-11T08:44:11.303Z,17.71
2022-09-11T08:45:11.300Z,17.75
2022-09-11T08:46:11.326Z,17.84
2022-09-11T08:47:11.309Z,17.89
2022-09-11T08:48:11.282Z,17.97
2022-09-11T08:49:11.240Z,18.02
2022-09-11T08:50:11.287Z,18.07
2022-09-11T08:51:11.212Z,18.14
2022-09-11T08:52:11.242Z,18.15
2022-09-11T08:53:12.921Z,18.11
2022-09-11T08:54:11.190Z,18.12
2022-09-11T08:55:11.160Z,18.05
2022-09-11T08:56:11.150Z,18.03
2022-09-11T08:57:11.174Z,18.07
2022-09-11T08:58:11.129Z,18.10
2022-09-11T08:59:11.150Z,18.15
2022-09-11T09:00:11.110Z,18.21
2022-09-11T09:01:11.138Z,18.30
2022-09-11T09:02:11.136Z,18.33
2022-09-11T09:03:11.052Z,18.44
2022-09-11T09:04:11.049Z,18.50
2022-09-11T09:05:11.058Z,18.55
2022-09-11T09:06:11.015Z,18.65
2022-09-11T09:07:11.036Z,18.78
2022-09-11T09:08:11.018Z,19.04
2022-09-11T09:09:10.979Z,19.21
2022-09-11T09:10:11.644Z,19.40
2022-09-11T09:11:11.321Z,19.54
2022-09-11T09:12:10.943Z,19.58
2022-09-11T09:13:10.910Z,19.63
2022-09-11T09:14:10.920Z,19.83
2022-09-11T09:15:10.939Z,19.98
2022-09-11T09:16:11.384Z,20.16
2022-09-11T09:17:10.931Z,20.21
2022-09-11T09:18:10.910Z,20.35
2022-09-11T09:19:10.937Z,20.54
2022-09-11T09:20:10.842Z,20.85
2022-09-11T09:21:10.889Z,21.12
2022-09-11T09:22:10.817Z,21.40
2022-09-11T09:23:10.790Z,21.64
2022-09-11T09:24:10.828Z,21.65
2022-09-11T09:25:10.821Z,21.65
2022-09-11T09:26:10.842Z,21.52
2022-09-11T09:27:11.289Z,21.40
2022-09-11T09:28:10.739Z,21.29
2022-09-11T09:29:10.711Z,21.01
2022-09-11T09:30:10.699Z,20.84
2022-09-11T09:31:10.877Z,20.72
2022-09-11T09:32:10.687Z,20.57
2022-09-11T09:33:13.288Z,20.35
2022-09-11T09:34:10.639Z,20.24
2022-09-11T09:35:10.649Z,20.16
2022-09-11T09:36:11.670Z,19.99
2022-09-11T09:37:11.050Z,19.81
2022-09-11T09:38:11.475Z,19.66
2022-09-11T09:39:10.879Z,19.50
2022-09-11T09:40:10.809Z,19.37
2022-09-11T09:41:10.549Z,19.31
2022-09-11T09:42:10.540Z,19.26
2022-09-11T09:43:10.530Z,19.25
2022-09-11T09:44:10.520Z,19.19
2022-09-11T09:45:10.627Z,19.14
2022-09-11T09:46:11.109Z,19.11
2022-09-11T09:47:10.530Z,19.08
2022-09-11T09:48:10.467Z,19.06
2022-09-11T09:49:10.472Z,19.07
2022-09-11T09:50:10.445Z,19.11
2022-09-11T09:51:10.779Z,19.18
2022-09-11T09:52:10.406Z,19.25
2022-09-11T09:53:10.394Z,19.33
2022-09-11T09:54:10.398Z,19.40
2022-09-11T09:55:10.371Z,19.43
2022-09-11T09:56:10.361Z,19.47
2022-09-11T09:57:10.478Z,19.48
2022-09-11T09:58:10.347Z,19.50
2022-09-11T09:59:10.349Z,19.47
2022-09-11T10:00:10.337Z,19.47
2022-09-11T10:01:10.440Z,19.46
2022-09-11T10:02:10.850Z,19.41
2022-09-11T10:03:10.301Z,19.41
2022-09-11T10:04:10.326Z,19.39
2022-09-11T10:05:10.289Z,19.41
2022-09-11T10:06:10.228Z,19.46
2022-09-11T10:07:11.417Z,19.39
2022-09-11T10:08:10.234Z,19.47
2022-09-11T10:09:10.189Z,19.59
2022-09-11T10:10:10.192Z,19.62
2022-09-11T10:11:10.176Z,19.81
2022-09-11T10:12:10.153Z,20.13
2022-09-11T10:13:19.296Z,20.42
2022-09-11T10:14:13.627Z,20.74
2022-09-11T10:15:11.124Z,20.97
2022-09-11T10:16:10.137Z,21.06
2022-09-11T10:17:10.079Z,21.21
2022-09-11T10:18:10.084Z,21.49
2022-09-11T10:19:10.344Z,21.58
2022-09-11T10:20:10.039Z,21.68
2022-09-11T10:21:10.029Z,21.79
2022-09-11T10:22:10.021Z,21.74
2022-09-11T10:23:10.007Z,21.71
2022-09-11T10:24:10.002Z,21.44
2022-09-11T10:25:10.368Z,21.27
2022-09-11T10:26:09.970Z,21.27
2022-09-11T10:27:09.958Z,21.24
2022-09-11T10:28:09.948Z,21.10
2022-09-11T10:29:09.935Z,21.04
2022-09-11T10:30:09.939Z,21.10
2022-09-11T10:31:10.253Z,20.91
2022-09-11T10:32:09.887Z,20.92
2022-09-11T10:33:09.899Z,21.01
2022-09-11T10:34:09.878Z,20.95
2022-09-11T10:35:09.851Z,20.80
2022-09-11T10:36:09.838Z,20.82
2022-09-11T10:37:10.128Z,20.88
2022-09-11T10:38:09.808Z,20.91
2022-09-11T10:39:09.820Z,20.92
2022-09-11T10:40:09.846Z,21.01
2022-09-11T10:41:09.784Z,21.12
2022-09-11T10:42:09.756Z,21.21
2022-09-11T10:43:10.106Z,21.29
2022-09-11T10:44:09.718Z,21.17
2022-09-11T10:45:09.724Z,21.01
2022-09-11T10:46:09.750Z,20.84
2022-09-11T10:47:09.688Z,20.67
2022-09-11T10:48:09.721Z,20.50
2022-09-11T10:49:09.878Z,20.35
2022-09-11T10:50:09.692Z,20.35
2022-09-11T10:51:09.672Z,20.42
2022-09-11T10:52:09.737Z,20.55
2022-09-11T10:53:09.629Z,20.58
2022-09-11T10:54:09.632Z,20.31
2022-09-11T10:55:09.587Z,20.36
2022-09-11T10:56:09.575Z,20.50
2022-09-11T10:57:09.562Z,20.66
2022-09-11T10:58:09.547Z,20.82
2022-09-11T10:59:09.901Z,21.06
2022-09-11T11:00:09.541Z,21.22
2022-09-11T11:01:09.575Z,21.12
2022-09-11T11:02:09.522Z,21.03
2022-09-11T11:03:09.506Z,21.12
2022-09-11T11:04:12.339Z,21.25
2022-09-11T11:05:09.668Z,21.25
2022-09-11T11:06:10.946Z,21.24
2022-09-11T11:07:09.427Z,21.19
2022-09-11T11:08:09.419Z,21.24
2022-09-11T11:09:09.654Z,21.29
2022-09-11T11:10:09.406Z,21.43
2022-09-11T11:11:09.378Z,21.37
2022-09-11T11:12:09.357Z,21.42
2022-09-11T11:13:09.427Z,21.54
2022-09-11T11:14:09.464Z,21.52
2022-09-11T11:15:09.756Z,21.65
2022-09-11T11:16:09.334Z,21.68
2022-09-11T11:17:09.300Z,21.75
2022-09-11T11:18:09.276Z,21.90
2022-09-11T11:19:09.274Z,22.10
2022-09-11T11:20:09.259Z,22.18
2022-09-11T11:21:09.665Z,22.21
2022-09-11T11:22:09.227Z,22.25
2022-09-11T11:23:14.505Z,22.22
2022-09-11T11:24:10.196Z,22.28
2022-09-11T11:25:09.205Z,22.39
2022-09-11T11:26:09.396Z,22.46
2022-09-11T11:27:09.165Z,22.55
2022-09-11T11:28:09.146Z,22.57
2022-09-11T11:29:09.154Z,22.67
2022-09-11T11:30:09.142Z,22.77
2022-09-11T11:31:09.137Z,22.91
2022-09-11T11:32:09.394Z,23.07
2022-09-11T11:33:09.172Z,23.22
2022-09-11T11:34:09.080Z,23.20
2022-09-11T11:35:09.077Z,23.13
2022-09-11T11:36:09.233Z,23.04
2022-09-11T11:37:09.323Z,23.13
2022-09-11T11:38:09.016Z,23.10
2022-09-11T11:39:09.030Z,22.91
2022-09-11T11:40:09.048Z,22.80
2022-09-11T11:41:08.986Z,22.79
2022-09-11T11:42:08.983Z,22.95
2022-09-11T11:43:09.312Z,23.05
2022-09-11T11:44:08.955Z,23.00
2022-09-11T11:45:08.954Z,23.09
2022-09-11T11:46:08.952Z,23.07
2022-09-11T11:47:09.555Z,23.07
2022-09-11T11:48:08.916Z,23.15
2022-09-11T11:49:09.227Z,23.17
2022-09-11T11:50:08.863Z,23.07
2022-09-11T11:51:08.888Z,23.16
2022-09-11T11:52:08.845Z,23.23
2022-09-11T11:53:08.832Z,23.38
2022-09-11T11:54:08.824Z,23.40
2022-09-11T11:55:09.235Z,23.48
2022-09-11T11:56:08.799Z,23.39
2022-09-11T11:57:08.783Z,23.28
2022-09-11T11:58:08.765Z,23.09
2022-09-11T11:59:08.757Z,22.92
2022-09-11T12:00:08.751Z,22.82
2022-09-11T12:01:08.987Z,22.76
2022-09-11T12:02:08.763Z,22.43
2022-09-11T12:03:08.725Z,22.43
2022-09-11T12:04:08.690Z,22.45
2022-09-11T12:05:08.856Z,22.49
2022-09-11T12:06:09.134Z,22.51
2022-09-11T12:07:08.662Z,22.49
2022-09-11T12:08:08.637Z,22.52
2022-09-11T12:09:08.626Z,22.55
2022-09-11T12:10:08.615Z,22.60
2022-09-11T12:11:09.061Z,22.43
2022-09-11T12:12:08.587Z,22.65
2022-09-11T12:13:08.575Z,22.45
2022-09-11T12:14:08.589Z,22.36
2022-09-11T12:15:08.564Z,22.21
2022-09-11T12:16:11.201Z,22.14
2022-09-11T12:17:08.771Z,22.15
2022-09-11T12:18:08.536Z,22.09
2022-09-11T12:19:08.514Z,22.14
2022-09-11T12:20:08.475Z,22.24
2022-09-11T12:21:08.465Z,22.25
2022-09-11T12:22:08.497Z,22.18
2022-09-11T12:23:08.504Z,22.27
2022-09-11T12:24:08.484Z,22.35
2022-09-11T12:25:08.416Z,22.45
2022-09-11T12:26:08.405Z,22.57
2022-09-11T12:27:11.176Z,22.62
2022-09-11T12:28:08.445Z,22.73
2022-09-11T12:29:08.364Z,22.83
2022-09-11T12:30:08.395Z,22.92
2022-09-11T12:31:08.399Z,22.94
2022-09-11T12:32:08.345Z,22.83
2022-09-11T12:33:08.314Z,22.65
2022-09-11T12:34:08.831Z,22.57
2022-09-11T12:35:08.311Z,22.49
2022-09-11T12:36:08.265Z,22.30
2022-09-11T12:37:08.277Z,22.17
2022-09-11T12:38:08.248Z,22.17
2022-09-11T12:39:08.234Z,22.20
2022-09-11T12:40:08.320Z,22.20
2022-09-11T12:41:08.204Z,22.06
2022-09-11T12:42:08.193Z,22.03
2022-09-11T12:43:09.205Z,22.02
2022-09-11T12:44:08.173Z,21.92
2022-09-11T12:45:08.236Z,21.83
2022-09-11T12:46:08.198Z,21.64
2022-09-11T12:47:08.135Z,21.62
2022-09-11T12:48:08.114Z,21.68
2022-09-11T12:49:21.714Z,21.72
2022-09-11T12:50:09.313Z,21.83
2022-09-11T12:51:08.132Z,21.92
2022-09-11T12:52:08.054Z,21.96